sensor_id;sensor_type;location;lat;lon;timestamp;P1;durP1;ratioP1;P2;durP2;ratioP2
18142;SDS011;9197;50.930;3.140;2023-06-10T00:01:43;9.52;;;7.32;;
18142;SDS011;9197;50.930;3.140;2023-06-10T00:04:13;8.65;;;7.32;;
18142;SDS011;9197;50.930;3.140;2023-06-10T00:06:41;9.55;;;7.50;;
18142;SDS011;9197;50.930;3.140;2023-06-10T00:09:09;7.97;;;7.18;;
18142;SDS011;9197;50.930;3.140;2023-06-10T00:11:36;8.23;;;7.30;;
18142;SDS011;9197;50.930;3.140;2023-06-10T00:14:04;8.93;;;7.95;;
18142;SDS011;9197;50.930;3.140;2023-06-10T00:16:31;7.93;;;7.22;;
18142;SDS011;9197;50.930;3.140;2023-06-10T00:19:00;7.35;;;6.55;;
18142;SDS011;9197;50.930;3.140;2023-06-10T00:21:28;12.18;;;7.78;;
18142;SDS011;9197;50.930;3.140;2023-06-10T00:24:02;8.23;;;7.45;;
18142;SDS011;9197;50.930;3.140;2023-06-10T00:26:30;9.32;;;8.10;;
18142;SDS011;9197;50.930;3.140;2023-06-10T00:28:57;9.52;;;8.43;;
18142;SDS011;9197;50.930;3.140;2023-06-10T00:31:24;9.32;;;8.20;;
18142;SDS011;9197;50.930;3.140;2023-06-10T00:33:52;9.63;;;7.97;;
18142;SDS011;9197;50.930;3.140;2023-06-10T00:36:21;8.88;;;7.75;;
18142;SDS011;9197;50.930;3.140;2023-06-10T00:38:48;9.05;;;7.90;;
18142;SDS011;9197;50.930;3.140;2023-06-10T00:41:15;9.02;;;8.25;;
18142;SDS011;9197;50.930;3.140;2023-06-10T00:43:43;8.70;;;7.95;;
18142;SDS011;9197;50.930;3.140;2023-06-10T00:46:10;10.38;;;8.00;;
18142;SDS011;9197;50.930;3.140;2023-06-10T00:48:39;9.25;;;8.35;;
18142;SDS011;9197;50.930;3.140;2023-06-10T00:51:07;10.73;;;8.15;;
18142;SDS011;9197;50.930;3.140;2023-06-10T00:53:36;9.77;;;8.60;;
18142;SDS011;9197;50.930;3.140;2023-06-10T00:56:06;9.93;;;8.27;;
18142;SDS011;9197;50.930;3.140;2023-06-10T00:58:33;9.85;;;8.95;;
18142;SDS011;9197;50.930;3.140;2023-06-10T01:01:02;10.07;;;8.20;;
18142;SDS011;9197;50.930;3.140;2023-06-10T01:03:30;11.55;;;8.52;;
18142;SDS011;9197;50.930;3.140;2023-06-10T01:06:05;8.50;;;7.80;;
18142;SDS011;9197;50.930;3.140;2023-06-10T01:08:37;9.65;;;8.63;;
18142;SDS011;9197;50.930;3.140;2023-06-10T01:11:07;10.25;;;8.63;;
18142;SDS011;9197;50.930;3.140;2023-06-10T01:13:35;9.55;;;8.70;;
18142;SDS011;9197;50.930;3.140;2023-06-10T01:16:04;10.57;;;9.50;;
18142;SDS011;9197;50.930;3.140;2023-06-10T01:18:32;10.00;;;9.05;;
18142;SDS011;9197;50.930;3.140;2023-06-10T01:20:59;11.55;;;10.32;;
18142;SDS011;9197;50.930;3.140;2023-06-10T01:23:28;10.00;;;9.13;;
18142;SDS011;9197;50.930;3.140;2023-06-10T01:25:58;9.50;;;8.70;;
18142;SDS011;9197;50.930;3.140;2023-06-10T01:28:27;13.63;;;10.32;;
18142;SDS011;9197;50.930;3.140;2023-06-10T01:31:01;10.18;;;9.18;;
18142;SDS011;9197;50.930;3.140;2023-06-10T01:33:36;9.90;;;9.00;;
18142;SDS011;9197;50.930;3.140;2023-06-10T01:36:04;15.00;;;9.88;;
18142;SDS011;9197;50.930;3.140;2023-06-10T01:38:36;11.07;;;10.07;;
18142;SDS011;9197;50.930;3.140;2023-06-10T01:41:06;9.27;;;8.38;;
18142;SDS011;9197;50.930;3.140;2023-06-10T01:43:33;10.52;;;9.52;;
18142;SDS011;9197;50.930;3.140;2023-06-10T01:46:01;10.85;;;9.55;;
18142;SDS011;9197;50.930;3.140;2023-06-10T01:48:28;10.85;;;9.68;;
18142;SDS011;9197;50.930;3.140;2023-06-10T01:50:55;10.63;;;9.52;;
18142;SDS011;9197;50.930;3.140;2023-06-10T01:53:23;10.55;;;9.65;;
18142;SDS011;9197;50.930;3.140;2023-06-10T01:55:52;11.15;;;9.90;;
18142;SDS011;9197;50.930;3.140;2023-06-10T01:58:19;10.77;;;9.77;;
18142;SDS011;9197;50.930;3.140;2023-06-10T02:00:46;9.85;;;8.82;;
18142;SDS011;9197;50.930;3.140;2023-06-10T02:03:13;11.75;;;10.65;;
18142;SDS011;9197;50.930;3.140;2023-06-10T02:05:41;11.32;;;10.02;;
18142;SDS011;9197;50.930;3.140;2023-06-10T02:08:08;11.55;;;10.15;;
18142;SDS011;9197;50.930;3.140;2023-06-10T02:10:35;10.38;;;9.38;;
18142;SDS011;9197;50.930;3.140;2023-06-10T02:13:04;11.77;;;10.27;;
18142;SDS011;9197;50.930;3.140;2023-06-10T02:15:31;10.05;;;9.07;;
18142;SDS011;9197;50.930;3.140;2023-06-10T02:17:58;10.02;;;9.10;;
18142;SDS011;9197;50.930;3.140;2023-06-10T02:20:26;11.25;;;10.25;;
18142;SDS011;9197;50.930;3.140;2023-06-10T02:22:53;14.63;;;9.98;;
18142;SDS011;9197;50.930;3.140;2023-06-10T02:25:20;10.88;;;9.82;;
18142;SDS011;9197;50.930;3.140;2023-06-10T02:27:48;10.88;;;9.85;;
18142;SDS011;9197;50.930;3.140;2023-06-10T02:30:17;10.57;;;9.68;;
18142;SDS011;9197;50.930;3.140;2023-06-10T02:32:44;11.43;;;10.40;;
18142;SDS011;9197;50.930;3.140;2023-06-10T02:35:13;10.65;;;9.82;;
18142;SDS011;9197;50.930;3.140;2023-06-10T02:37:40;10.77;;;9.75;;
18142;SDS011;9197;50.930;3.140;2023-06-10T02:40:08;12.73;;;10.65;;
18142;SDS011;9197;50.930;3.140;2023-06-10T02:42:35;11.57;;;10.15;;
18142;SDS011;9197;50.930;3.140;2023-06-10T02:45:03;12.02;;;10.23;;
18142;SDS011;9197;50.930;3.140;2023-06-10T02:47:32;11.45;;;10.30;;
18142;SDS011;9197;50.930;3.140;2023-06-10T02:49:59;13.25;;;10.02;;
18142;SDS011;9197;50.930;3.140;2023-06-10T02:52:26;10.77;;;9.80;;
18142;SDS011;9197;50.930;3.140;2023-06-10T02:54:53;11.65;;;10.57;;
18142;SDS011;9197;50.930;3.140;2023-06-10T02:57:21;11.25;;;10.10;;
18142;SDS011;9197;50.930;3.140;2023-06-10T02:59:48;11.27;;;10.38;;
18142;SDS011;9197;50.930;3.140;2023-06-10T03:02:16;11.95;;;10.82;;
18142;SDS011;9197;50.930;3.140;2023-06-10T03:04:45;11.25;;;10.15;;
18142;SDS011;9197;50.930;3.140;2023-06-10T03:07:12;11.55;;;10.35;;
18142;SDS011;9197;50.930;3.140;2023-06-10T03:09:39;12.00;;;9.52;;
18142;SDS011;9197;50.930;3.140;2023-06-10T03:12:07;12.05;;;10.90;;
18142;SDS011;9197;50.930;3.140;2023-06-10T03:14:35;10.27;;;9.48;;
18142;SDS011;9197;50.930;3.140;2023-06-10T03:17:04;11.52;;;10.60;;
18142;SDS011;9197;50.930;3.140;2023-06-10T03:19:33;11.35;;;10.23;;
18142;SDS011;9197;50.930;3.140;2023-06-10T03:22:10;11.43;;;10.32;;
18142;SDS011;9197;50.930;3.140;2023-06-10T03:24:38;11.15;;;10.05;;
18142;SDS011;9197;50.930;3.140;2023-06-10T03:27:06;10.60;;;9.63;;
18142;SDS011;9197;50.930;3.140;2023-06-10T03:29:34;11.82;;;10.73;;
18142;SDS011;9197;50.930;3.140;2023-06-10T03:32:01;14.93;;;11.32;;
18142;SDS011;9197;50.930;3.140;2023-06-10T03:34:29;11.35;;;10.23;;
18142;SDS011;9197;50.930;3.140;2023-06-10T03:36:56;10.95;;;9.95;;
18142;SDS011;9197;50.930;3.140;2023-06-10T03:39:25;11.80;;;10.63;;
18142;SDS011;9197;50.930;3.140;2023-06-10T03:41:54;12.45;;;11.23;;
18142;SDS011;9197;50.930;3.140;2023-06-10T03:44:21;11.27;;;10.18;;
18142;SDS011;9197;50.930;3.140;2023-06-10T03:46:49;10.80;;;9.90;;
18142;SDS011;9197;50.930;3.140;2023-06-10T03:49:17;11.30;;;10.20;;
18142;SDS011;9197;50.930;3.140;2023-06-10T03:51:44;10.65;;;9.73;;
18142;SDS011;9197;50.930;3.140;2023-06-10T03:54:11;12.18;;;10.93;;
18142;SDS011;9197;50.930;3.140;2023-06-10T03:56:40;14.02;;;10.88;;
18142;SDS011;9197;50.930;3.140;2023-06-10T03:59:07;11.88;;;10.65;;
18142;SDS011;9197;50.930;3.140;2023-06-10T04:01:34;13.35;;;10.88;;
18142;SDS011;9197;50.930;3.140;2023-06-10T04:04:02;11.88;;;10.77;;
18142;SDS011;9197;50.930;3.140;2023-06-10T04:06:30;12.25;;;10.95;;
18142;SDS011;9197;50.930;3.140;2023-06-10T04:08:57;11.60;;;10.48;;
18142;SDS011;9197;50.930;3.140;2023-06-10T04:11:24;11.60;;;9.93;;
18142;SDS011;9197;50.930;3.140;2023-06-10T04:13:53;11.43;;;10.38;;
18142;SDS011;9197;50.930;3.140;2023-06-10T04:16:20;12.70;;;11.40;;
18142;SDS011;9197;50.930;3.140;2023-06-10T04:18:48;11.85;;;10.38;;
18142;SDS011;9197;50.930;3.140;2023-06-10T04:21:15;13.07;;;12.07;;
18142;SDS011;9197;50.930;3.140;2023-06-10T04:23:42;13.07;;;11.93;;
18142;SDS011;9197;50.930;3.140;2023-06-10T04:26:10;11.07;;;10.15;;
18142;SDS011;9197;50.930;3.140;2023-06-10T04:28:37;12.45;;;11.23;;
18142;SDS011;9197;50.930;3.140;2023-06-10T04:31:06;12.38;;;11.07;;
18142;SDS011;9197;50.930;3.140;2023-06-10T04:33:33;12.60;;;11.38;;
18142;SDS011;9197;50.930;3.140;2023-06-10T04:36:00;12.85;;;11.57;;
18142;SDS011;9197;50.930;3.140;2023-06-10T04:38:27;12.15;;;10.98;;
18142;SDS011;9197;50.930;3.140;2023-06-10T04:40:56;13.07;;;11.83;;
18142;SDS011;9197;50.930;3.140;2023-06-10T04:43:23;12.90;;;11.77;;
18142;SDS011;9197;50.930;3.140;2023-06-10T04:45:50;12.27;;;10.93;;
18142;SDS011;9197;50.930;3.140;2023-06-10T04:48:19;13.55;;;12.25;;
18142;SDS011;9197;50.930;3.140;2023-06-10T04:50:46;11.68;;;10.73;;
18142;SDS011;9197;50.930;3.140;2023-06-10T04:53:13;12.10;;;10.93;;
18142;SDS011;9197;50.930;3.140;2023-06-10T04:55:41;12.85;;;11.75;;
18142;SDS011;9197;50.930;3.140;2023-06-10T04:58:09;12.80;;;11.48;;
18142;SDS011;9197;50.930;3.140;2023-06-10T05:00:36;12.73;;;11.55;;
18142;SDS011;9197;50.930;3.140;2023-06-10T05:03:03;11.43;;;10.50;;
18142;SDS011;9197;50.930;3.140;2023-06-10T05:05:32;11.50;;;10.50;;
18142;SDS011;9197;50.930;3.140;2023-06-10T05:07:59;12.50;;;11.30;;
18142;SDS011;9197;50.930;3.140;2023-06-10T05:10:27;12.60;;;11.32;;
18142;SDS011;9197;50.930;3.140;2023-06-10T05:12:56;13.35;;;12.13;;
18142;SDS011;9197;50.930;3.140;2023-06-10T05:15:24;12.20;;;11.10;;
18142;SDS011;9197;50.930;3.140;2023-06-10T05:17:51;13.30;;;11.93;;
18142;SDS011;9197;50.930;3.140;2023-06-10T05:20:19;12.88;;;11.77;;
18142;SDS011;9197;50.930;3.140;2023-06-10T05:22:47;13.65;;;12.25;;
18142;SDS011;9197;50.930;3.140;2023-06-10T05:25:14;12.55;;;11.27;;
18142;SDS011;9197;50.930;3.140;2023-06-10T05:27:42;13.45;;;12.30;;
18142;SDS011;9197;50.930;3.140;2023-06-10T05:30:09;13.15;;;12.10;;
18142;SDS011;9197;50.930;3.140;2023-06-10T05:32:37;13.05;;;11.85;;
18142;SDS011;9197;50.930;3.140;2023-06-10T05:35:05;13.52;;;12.32;;
18142;SDS011;9197;50.930;3.140;2023-06-10T05:37:33;13.93;;;12.40;;
18142;SDS011;9197;50.930;3.140;2023-06-10T05:40:03;13.23;;;12.02;;
18142;SDS011;9197;50.930;3.140;2023-06-10T05:42:31;12.82;;;11.82;;
18142;SDS011;9197;50.930;3.140;2023-06-10T05:44:58;12.77;;;11.10;;
18142;SDS011;9197;50.930;3.140;2023-06-10T05:47:25;12.13;;;11.07;;
18142;SDS011;9197;50.930;3.140;2023-06-10T05:49:53;13.05;;;11.85;;
18142;SDS011;9197;50.930;3.140;2023-06-10T05:52:20;14.80;;;13.02;;
18142;SDS011;9197;50.930;3.140;2023-06-10T05:54:48;13.43;;;12.13;;
18142;SDS011;9197;50.930;3.140;2023-06-10T05:57:16;14.02;;;12.18;;
18142;SDS011;9197;50.930;3.140;2023-06-10T05:59:44;12.98;;;11.63;;
18142;SDS011;9197;50.930;3.140;2023-06-10T06:02:11;13.10;;;11.95;;
18142;SDS011;9197;50.930;3.140;2023-06-10T06:04:39;14.07;;;11.25;;
18142;SDS011;9197;50.930;3.140;2023-06-10T06:07:06;12.90;;;11.82;;
18142;SDS011;9197;50.930;3.140;2023-06-10T06:09:33;13.00;;;11.77;;
18142;SDS011;9197;50.930;3.140;2023-06-10T06:12:00;12.50;;;11.20;;
18142;SDS011;9197;50.930;3.140;2023-06-10T06:14:30;11.80;;;10.70;;
18142;SDS011;9197;50.930;3.140;2023-06-10T06:16:58;12.80;;;11.60;;
18142;SDS011;9197;50.930;3.140;2023-06-10T06:19:25;17.65;;;12.05;;
18142;SDS011;9197;50.930;3.140;2023-06-10T06:21:52;15.38;;;11.73;;
18142;SDS011;9197;50.930;3.140;2023-06-10T06:24:20;12.30;;;11.00;;
18142;SDS011;9197;50.930;3.140;2023-06-10T06:26:47;13.35;;;11.95;;
18142;SDS011;9197;50.930;3.140;2023-06-10T06:29:14;12.13;;;10.85;;
18142;SDS011;9197;50.930;3.140;2023-06-10T06:31:43;14.57;;;10.82;;
18142;SDS011;9197;50.930;3.140;2023-06-10T06:34:10;13.10;;;11.90;;
18142;SDS011;9197;50.930;3.140;2023-06-10T06:36:38;13.80;;;10.95;;
18142;SDS011;9197;50.930;3.140;2023-06-10T06:39:08;14.65;;;10.95;;
18142;SDS011;9197;50.930;3.140;2023-06-10T06:41:35;13.55;;;11.05;;
18142;SDS011;9197;50.930;3.140;2023-06-10T06:44:02;11.77;;;10.63;;
18142;SDS011;9197;50.930;3.140;2023-06-10T06:46:30;14.02;;;10.80;;
18142;SDS011;9197;50.930;3.140;2023-06-10T06:48:58;12.40;;;10.98;;
18142;SDS011;9197;50.930;3.140;2023-06-10T06:51:25;10.40;;;9.40;;
18142;SDS011;9197;50.930;3.140;2023-06-10T06:53:53;11.98;;;9.85;;
18142;SDS011;9197;50.930;3.140;2023-06-10T06:56:23;11.27;;;10.18;;
18142;SDS011;9197;50.930;3.140;2023-06-10T06:58:52;11.32;;;10.23;;
18142;SDS011;9197;50.930;3.140;2023-06-10T07:01:19;10.75;;;9.85;;
18142;SDS011;9197;50.930;3.140;2023-06-10T07:03:46;10.80;;;9.77;;
18142;SDS011;9197;50.930;3.140;2023-06-10T07:06:15;11.35;;;10.32;;
18142;SDS011;9197;50.930;3.140;2023-06-10T07:08:43;11.43;;;9.70;;
18142;SDS011;9197;50.930;3.140;2023-06-10T07:11:10;10.68;;;9.68;;
18142;SDS011;9197;50.930;3.140;2023-06-10T07:13:37;10.25;;;9.23;;
18142;SDS011;9197;50.930;3.140;2023-06-10T07:16:20;10.38;;;9.30;;
18142;SDS011;9197;50.930;3.140;2023-06-10T07:18:47;9.60;;;8.77;;
18142;SDS011;9197;50.930;3.140;2023-06-10T07:21:16;9.65;;;8.45;;
18142;SDS011;9197;50.930;3.140;2023-06-10T07:23:45;11.00;;;9.80;;
18142;SDS011;9197;50.930;3.140;2023-06-10T07:26:13;10.80;;;9.63;;
18142;SDS011;9197;50.930;3.140;2023-06-10T07:28:40;10.52;;;9.63;;
18142;SDS011;9197;50.930;3.140;2023-06-10T07:31:07;9.75;;;8.95;;
18142;SDS011;9197;50.930;3.140;2023-06-10T07:33:36;12.82;;;11.82;;
18142;SDS011;9197;50.930;3.140;2023-06-10T07:36:04;12.30;;;11.23;;
18142;SDS011;9197;50.930;3.140;2023-06-10T07:38:33;12.13;;;10.90;;
18142;SDS011;9197;50.930;3.140;2023-06-10T07:41:00;12.70;;;11.27;;
18142;SDS011;9197;50.930;3.140;2023-06-10T07:43:27;12.55;;;11.00;;
18142;SDS011;9197;50.930;3.140;2023-06-10T07:45:55;12.40;;;11.15;;
18142;SDS011;9197;50.930;3.140;2023-06-10T07:48:23;13.07;;;11.77;;
18142;SDS011;9197;50.930;3.140;2023-06-10T07:50:51;10.27;;;9.35;;
18142;SDS011;9197;50.930;3.140;2023-06-10T07:53:19;10.75;;;9.98;;
18142;SDS011;9197;50.930;3.140;2023-06-10T07:55:48;10.32;;;9.48;;
18142;SDS011;9197;50.930;3.140;2023-06-10T07:58:15;13.15;;;9.57;;
18142;SDS011;9197;50.930;3.140;2023-06-10T08:00:42;10.82;;;9.85;;
18142;SDS011;9197;50.930;3.140;2023-06-10T08:03:10;10.57;;;9.65;;
18142;SDS011;9197;50.930;3.140;2023-06-10T08:05:37;9.80;;;8.90;;
18142;SDS011;9197;50.930;3.140;2023-06-10T08:08:06;13.15;;;9.60;;
18142;SDS011;9197;50.930;3.140;2023-06-10T08:10:35;10.88;;;9.75;;
18142;SDS011;9197;50.930;3.140;2023-06-10T08:13:03;10.07;;;9.27;;
18142;SDS011;9197;50.930;3.140;2023-06-10T08:15:31;9.52;;;8.85;;
18142;SDS011;9197;50.930;3.140;2023-06-10T08:17:58;10.32;;;9.43;;
18142;SDS011;9197;50.930;3.140;2023-06-10T08:20:25;11.40;;;10.25;;
18142;SDS011;9197;50.930;3.140;2023-06-10T08:22:53;11.30;;;10.38;;
18142;SDS011;9197;50.930;3.140;2023-06-10T08:25:20;11.93;;;10.80;;
18142;SDS011;9197;50.930;3.140;2023-06-10T08:27:47;11.15;;;10.40;;
18142;SDS011;9197;50.930;3.140;2023-06-10T08:30:17;11.48;;;10.45;;
18142;SDS011;9197;50.930;3.140;2023-06-10T08:32:44;10.98;;;10.27;;
18142;SDS011;9197;50.930;3.140;2023-06-10T08:35:12;11.68;;;10.77;;
18142;SDS011;9197;50.930;3.140;2023-06-10T08:37:40;11.15;;;10.23;;
18142;SDS011;9197;50.930;3.140;2023-06-10T08:40:07;11.55;;;10.75;;
18142;SDS011;9197;50.930;3.140;2023-06-10T08:42:37;11.20;;;10.50;;
18142;SDS011;9197;50.930;3.140;2023-06-10T08:45:05;11.70;;;10.70;;
18142;SDS011;9197;50.930;3.140;2023-06-10T08:47:35;10.82;;;10.10;;
18142;SDS011;9197;50.930;3.140;2023-06-10T08:50:06;11.90;;;10.82;;
18142;SDS011;9197;50.930;3.140;2023-06-10T08:52:35;11.23;;;10.05;;
18142;SDS011;9197;50.930;3.140;2023-06-10T08:55:03;9.50;;;8.88;;
18142;SDS011;9197;50.930;3.140;2023-06-10T08:57:31;10.07;;;9.27;;
18142;SDS011;9197;50.930;3.140;2023-06-10T08:59:58;11.07;;;10.27;;
18142;SDS011;9197;50.930;3.140;2023-06-10T09:02:25;10.55;;;9.63;;
18142;SDS011;9197;50.930;3.140;2023-06-10T09:04:55;10.75;;;9.70;;
18142;SDS011;9197;50.930;3.140;2023-06-10T09:07:23;10.30;;;9.50;;
18142;SDS011;9197;50.930;3.140;2023-06-10T09:09:50;10.70;;;9.68;;
18142;SDS011;9197;50.930;3.140;2023-06-10T09:12:19;10.45;;;9.73;;
18142;SDS011;9197;50.930;3.140;2023-06-10T09:14:46;10.32;;;9.43;;
18142;SDS011;9197;50.930;3.140;2023-06-10T09:17:13;10.68;;;9.85;;
18142;SDS011;9197;50.930;3.140;2023-06-10T09:19:41;10.75;;;9.52;;
18142;SDS011;9197;50.930;3.140;2023-06-10T09:22:10;11.23;;;10.23;;
18142;SDS011;9197;50.930;3.140;2023-06-10T09:24:38;10.13;;;9.43;;
18142;SDS011;9197;50.930;3.140;2023-06-10T09:27:06;10.63;;;9.82;;
18142;SDS011;9197;50.930;3.140;2023-06-10T09:29:44;11.73;;;10.52;;
18142;SDS011;9197;50.930;3.140;2023-06-10T09:32:12;10.95;;;9.98;;
18142;SDS011;9197;50.930;3.140;2023-06-10T09:34:39;10.15;;;9.52;;
18142;SDS011;9197;50.930;3.140;2023-06-10T09:37:07;10.18;;;9.35;;
18142;SDS011;9197;50.930;3.140;2023-06-10T09:39:38;9.63;;;8.90;;
18142;SDS011;9197;50.930;3.140;2023-06-10T09:42:15;9.40;;;8.52;;
18142;SDS011;9197;50.930;3.140;2023-06-10T09:44:46;9.88;;;9.05;;
18142;SDS011;9197;50.930;3.140;2023-06-10T09:47:19;10.38;;;9.40;;
18142;SDS011;9197;50.930;3.140;2023-06-10T09:49:47;10.48;;;9.68;;
18142;SDS011;9197;50.930;3.140;2023-06-10T09:52:18;9.50;;;8.80;;
18142;SDS011;9197;50.930;3.140;2023-06-10T09:54:49;10.82;;;9.93;;
18142;SDS011;9197;50.930;3.140;2023-06-10T09:57:16;9.70;;;8.85;;
18142;SDS011;9197;50.930;3.140;2023-06-10T09:59:44;11.43;;;10.63;;
18142;SDS011;9197;50.930;3.140;2023-06-10T10:02:14;9.82;;;8.85;;
18142;SDS011;9197;50.930;3.140;2023-06-10T10:04:42;9.55;;;8.93;;
18142;SDS011;9197;50.930;3.140;2023-06-10T10:07:09;10.32;;;9.38;;
18142;SDS011;9197;50.930;3.140;2023-06-10T10:09:37;10.80;;;10.00;;
18142;SDS011;9197;50.930;3.140;2023-06-10T10:12:07;9.73;;;8.88;;
18142;SDS011;9197;50.930;3.140;2023-06-10T10:14:37;10.02;;;9.05;;
18142;SDS011;9197;50.930;3.140;2023-06-10T10:17:05;9.88;;;9.15;;
18142;SDS011;9197;50.930;3.140;2023-06-10T10:19:35;9.95;;;9.20;;
18142;SDS011;9197;50.930;3.140;2023-06-10T10:22:06;10.02;;;9.00;;
18142;SDS011;9197;50.930;3.140;2023-06-10T10:24:36;9.93;;;9.13;;
18142;SDS011;9197;50.930;3.140;2023-06-10T10:27:07;9.32;;;8.52;;
18142;SDS011;9197;50.930;3.140;2023-06-10T10:29:38;9.55;;;8.65;;
18142;SDS011;9197;50.930;3.140;2023-06-10T10:32:06;9.70;;;8.30;;
18142;SDS011;9197;50.930;3.140;2023-06-10T10:34:35;8.88;;;8.27;;
18142;SDS011;9197;50.930;3.140;2023-06-10T10:37:02;9.02;;;8.27;;
18142;SDS011;9197;50.930;3.140;2023-06-10T10:39:30;8.05;;;7.28;;
18142;SDS011;9197;50.930;3.140;2023-06-10T10:41:59;9.15;;;8.45;;
18142;SDS011;9197;50.930;3.140;2023-06-10T10:44:30;8.40;;;7.68;;
18142;SDS011;9197;50.930;3.140;2023-06-10T10:46:58;7.90;;;7.40;;
18142;SDS011;9197;50.930;3.140;2023-06-10T10:49:29;8.48;;;7.75;;
18142;SDS011;9197;50.930;3.140;2023-06-10T10:51:57;8.48;;;7.88;;
18142;SDS011;9197;50.930;3.140;2023-06-10T10:54:28;8.18;;;7.35;;
18142;SDS011;9197;50.930;3.140;2023-06-10T10:57:15;8.95;;;8.18;;
18142;SDS011;9197;50.930;3.140;2023-06-10T10:59:52;8.73;;;7.93;;
18142;SDS011;9197;50.930;3.140;2023-06-10T11:02:32;9.10;;;7.75;;
18142;SDS011;9197;50.930;3.140;2023-06-10T11:04:59;7.65;;;7.13;;
18142;SDS011;9197;50.930;3.140;2023-06-10T11:07:28;8.50;;;7.80;;
18142;SDS011;9197;50.930;3.140;2023-06-10T11:09:59;9.55;;;6.45;;
18142;SDS011;9197;50.930;3.140;2023-06-10T11:12:33;9.23;;;7.82;;
18142;SDS011;9197;50.930;3.140;2023-06-10T11:15:07;7.28;;;6.80;;
18142;SDS011;9197;50.930;3.140;2023-06-10T11:17:35;7.80;;;7.20;;
18142;SDS011;9197;50.930;3.140;2023-06-10T11:20:02;7.75;;;6.97;;
18142;SDS011;9197;50.930;3.140;2023-06-10T11:22:30;8.45;;;7.75;;
18142;SDS011;9197;50.930;3.140;2023-06-10T11:24:57;7.85;;;7.07;;
18142;SDS011;9197;50.930;3.140;2023-06-10T11:27:25;8.38;;;7.78;;
18142;SDS011;9197;50.930;3.140;2023-06-10T11:29:56;8.13;;;7.35;;
18142;SDS011;9197;50.930;3.140;2023-06-10T11:32:24;7.80;;;7.30;;
18142;SDS011;9197;50.930;3.140;2023-06-10T11:34:53;7.60;;;6.88;;
18142;SDS011;9197;50.930;3.140;2023-06-10T11:37:20;7.35;;;6.85;;
18142;SDS011;9197;50.930;3.140;2023-06-10T11:39:51;9.27;;;8.38;;
18142;SDS011;9197;50.930;3.140;2023-06-10T11:42:18;7.75;;;7.05;;
18142;SDS011;9197;50.930;3.140;2023-06-10T11:44:49;7.95;;;7.25;;
18142;SDS011;9197;50.930;3.140;2023-06-10T11:47:17;8.32;;;7.63;;
18142;SDS011;9197;50.930;3.140;2023-06-10T11:49:45;7.70;;;7.10;;
18142;SDS011;9197;50.930;3.140;2023-06-10T11:52:13;6.60;;;6.20;;
18142;SDS011;9197;50.930;3.140;2023-06-10T11:54:40;7.00;;;6.40;;
18142;SDS011;9197;50.930;3.140;2023-06-10T11:57:08;6.85;;;6.20;;
18142;SDS011;9197;50.930;3.140;2023-06-10T11:59:35;6.97;;;6.47;;
18142;SDS011;9197;50.930;3.140;2023-06-10T12:02:03;6.45;;;5.85;;
18142;SDS011;9197;50.930;3.140;2023-06-10T12:04:31;6.47;;;5.93;;
18142;SDS011;9197;50.930;3.140;2023-06-10T12:06:59;6.80;;;5.88;;
18142;SDS011;9197;50.930;3.140;2023-06-10T12:09:27;7.03;;;6.47;;
18142;SDS011;9197;50.930;3.140;2023-06-10T12:11:56;9.40;;;6.93;;
18142;SDS011;9197;50.930;3.140;2023-06-10T12:17:09;7.38;;;6.65;;
18142;SDS011;9197;50.930;3.140;2023-06-10T12:19:38;7.55;;;6.63;;
18142;SDS011;9197;50.930;3.140;2023-06-10T12:22:07;8.13;;;6.40;;
18142;SDS011;9197;50.930;3.140;2023-06-10T12:24:38;8.05;;;6.97;;
18142;SDS011;9197;50.930;3.140;2023-06-10T12:27:10;7.10;;;6.50;;
18142;SDS011;9197;50.930;3.140;2023-06-10T12:29:38;6.97;;;6.35;;
18142;SDS011;9197;50.930;3.140;2023-06-10T12:32:05;7.95;;;6.25;;
18142;SDS011;9197;50.930;3.140;2023-06-10T12:34:36;7.38;;;6.70;;
18142;SDS011;9197;50.930;3.140;2023-06-10T12:37:04;7.40;;;6.60;;
18142;SDS011;9197;50.930;3.140;2023-06-10T12:39:33;7.18;;;6.50;;
18142;SDS011;9197;50.930;3.140;2023-06-10T12:42:00;7.72;;;7.13;;
18142;SDS011;9197;50.930;3.140;2023-06-10T12:44:29;7.72;;;7.03;;
18142;SDS011;9197;50.930;3.140;2023-06-10T12:46:56;7.13;;;6.43;;
18142;SDS011;9197;50.930;3.140;2023-06-10T12:49:23;7.32;;;6.60;;
18142;SDS011;9197;50.930;3.140;2023-06-10T12:51:51;7.45;;;6.85;;
18142;SDS011;9197;50.930;3.140;2023-06-10T12:54:19;7.05;;;6.28;;
18142;SDS011;9197;50.930;3.140;2023-06-10T12:56:47;7.13;;;6.40;;
18142;SDS011;9197;50.930;3.140;2023-06-10T12:59:15;8.15;;;6.03;;
18142;SDS011;9197;50.930;3.140;2023-06-10T13:01:42;6.57;;;6.15;;
18142;SDS011;9197;50.930;3.140;2023-06-10T13:04:10;6.90;;;6.22;;
18142;SDS011;9197;50.930;3.140;2023-06-10T13:07:04;6.63;;;5.82;;
18142;SDS011;9197;50.930;3.140;2023-06-10T13:09:32;6.80;;;6.30;;
18142;SDS011;9197;50.930;3.140;2023-06-10T13:12:00;6.68;;;6.18;;
18142;SDS011;9197;50.930;3.140;2023-06-10T13:14:27;7.18;;;6.68;;
18142;SDS011;9197;50.930;3.140;2023-06-10T13:16:55;5.90;;;5.50;;
18142;SDS011;9197;50.930;3.140;2023-06-10T13:19:22;6.75;;;6.15;;
18142;SDS011;9197;50.930;3.140;2023-06-10T13:21:50;6.00;;;5.28;;
18142;SDS011;9197;50.930;3.140;2023-06-10T13:24:18;5.90;;;5.50;;
18142;SDS011;9197;50.930;3.140;2023-06-10T13:26:46;6.75;;;6.25;;
18142;SDS011;9197;50.930;3.140;2023-06-10T13:29:13;6.85;;;6.20;;
18142;SDS011;9197;50.930;3.140;2023-06-10T13:31:41;6.88;;;6.25;;
18142;SDS011;9197;50.930;3.140;2023-06-10T13:34:08;5.95;;;5.40;;
18142;SDS011;9197;50.930;3.140;2023-06-10T13:36:36;6.35;;;5.80;;
18142;SDS011;9197;50.930;3.140;2023-06-10T13:39:03;6.63;;;6.03;;
18142;SDS011;9197;50.930;3.140;2023-06-10T13:41:32;8.68;;;6.22;;
18142;SDS011;9197;50.930;3.140;2023-06-10T13:44:00;6.65;;;6.15;;
18142;SDS011;9197;50.930;3.140;2023-06-10T13:46:27;6.00;;;5.50;;
18142;SDS011;9197;50.930;3.140;2023-06-10T13:48:55;5.80;;;5.40;;
18142;SDS011;9197;50.930;3.140;2023-06-10T13:51:22;6.03;;;5.55;;
18142;SDS011;9197;50.930;3.140;2023-06-10T13:53:50;6.07;;;5.65;;
18142;SDS011;9197;50.930;3.140;2023-06-10T13:56:17;6.95;;;6.28;;
18142;SDS011;9197;50.930;3.140;2023-06-10T13:58:46;7.00;;;6.40;;
18142;SDS011;9197;50.930;3.140;2023-06-10T14:01:14;6.38;;;5.93;;
18142;SDS011;9197;50.930;3.140;2023-06-10T14:03:41;6.47;;;5.78;;
18142;SDS011;9197;50.930;3.140;2023-06-10T14:06:08;6.30;;;5.80;;
18142;SDS011;9197;50.930;3.140;2023-06-10T14:08:38;6.60;;;5.90;;
18142;SDS011;9197;50.930;3.140;2023-06-10T14:11:06;6.20;;;5.60;;
18142;SDS011;9197;50.930;3.140;2023-06-10T14:13:33;6.60;;;6.10;;
18142;SDS011;9197;50.930;3.140;2023-06-10T14:16:05;8.25;;;6.13;;
18142;SDS011;9197;50.930;3.140;2023-06-10T14:18:32;6.90;;;5.80;;
18142;SDS011;9197;50.930;3.140;2023-06-10T14:21:00;6.40;;;5.80;;
18142;SDS011;9197;50.930;3.140;2023-06-10T14:23:27;6.45;;;5.45;;
18142;SDS011;9197;50.930;3.140;2023-06-10T14:25:54;6.13;;;5.65;;
18142;SDS011;9197;50.930;3.140;2023-06-10T14:28:22;6.82;;;5.80;;
18142;SDS011;9197;50.930;3.140;2023-06-10T14:30:51;6.88;;;6.07;;
18142;SDS011;9197;50.930;3.140;2023-06-10T14:33:20;7.03;;;6.38;;
18142;SDS011;9197;50.930;3.140;2023-06-10T14:35:47;6.78;;;6.20;;
18142;SDS011;9197;50.930;3.140;2023-06-10T14:38:15;11.50;;;6.10;;
18142;SDS011;9197;50.930;3.140;2023-06-10T14:40:42;6.28;;;5.78;;
18142;SDS011;9197;50.930;3.140;2023-06-10T14:43:10;6.10;;;5.70;;
18142;SDS011;9197;50.930;3.140;2023-06-10T14:45:38;6.15;;;5.65;;
18142;SDS011;9197;50.930;3.140;2023-06-10T14:48:06;6.18;;;5.68;;
18142;SDS011;9197;50.930;3.140;2023-06-10T14:50:35;6.32;;;5.75;;
18142;SDS011;9197;50.930;3.140;2023-06-10T14:53:03;5.90;;;5.50;;
18142;SDS011;9197;50.930;3.140;2023-06-10T14:55:31;6.40;;;5.85;;
18142;SDS011;9197;50.930;3.140;2023-06-10T14:57:58;6.28;;;5.78;;